createdAt,value
2018-11-04T00:00:06.741Z,1.36
2018-11-04T00:01:13.831Z,1.37
2018-11-04T00:02:21.485Z,1.38
2018-11-04T00:03:28.044Z,1.36
2018-11-04T00:04:32.715Z,1.32
2018-11-04T00:05:38.131Z,1.29
2018-11-04T00:06:43.365Z,1.33
2018-11-04T00:07:50.426Z,1.32
2018-11-04T00:08:55.817Z,1.33
2018-11-04T00:10:00.940Z,1.39
2018-11-04T00:11:05.754Z,1.44
2018-11-04T00:12:12.461Z,1.48
2018-11-04T00:13:17.558Z,1.50
2018-11-04T00:14:22.446Z,1.51
2018-11-04T00:15:27.675Z,1.52
2018-11-04T00:16:37.583Z,1.55
2018-11-04T00:17:42.088Z,1.56
2018-11-04T00:18:46.572Z,1.50
2018-11-04T00:19:51.996Z,1.49
2018-11-04T00:20:59.335Z,1.45
2018-11-04T00:22:03.857Z,1.32
2018-11-04T00:23:08.564Z,1.27
2018-11-04T00:24:13.688Z,1.31
2018-11-04T00:25:18.174Z,1.34
2018-11-04T00:26:23.708Z,1.37
2018-11-04T00:27:28.692Z,1.37
2018-11-04T00:28:33.382Z,1.39
2018-11-04T00:29:38.856Z,1.36
2018-11-04T00:30:43.330Z,1.38
2018-11-04T00:31:48.565Z,1.39
2018-11-04T00:32:54.454Z,1.36
2018-11-04T00:34:00.806Z,1.34
2018-11-04T00:35:06.345Z,1.30
2018-11-04T00:36:11.656Z,1.27
2018-11-04T00:37:18.173Z,1.25
2018-11-04T00:38:24.736Z,1.28
2018-11-04T00:39:30.850Z,1.21
2018-11-04T00:40:36.517Z,1.20
2018-11-04T00:41:41.016Z,1.21
2018-11-04T00:42:46.045Z,1.18
2018-11-04T00:43:51.235Z,1.19
2018-11-04T00:44:55.702Z,1.19
2018-11-04T00:46:00.472Z,1.19
2018-11-04T00:47:06.186Z,1.27
2018-11-04T00:48:11.300Z,1.27
2018-11-04T00:49:16.748Z,1.35
2018-11-04T00:50:21.736Z,1.45
2018-11-04T00:51:26.303Z,1.57
2018-11-04T00:52:31.369Z,1.62
2018-11-04T00:53:36.606Z,1.63
2018-11-04T00:54:41.076Z,1.58
2018-11-04T00:55:52.847Z,1.56
2018-11-04T00:56:57.421Z,1.60
2018-11-04T00:58:02.571Z,1.56
2018-11-04T00:59:13.036Z,1.46
2018-11-04T01:00:19.617Z,1.46
2018-11-04T01:01:24.354Z,1.45
2018-11-04T01:02:28.836Z,1.46
2018-11-04T01:03:33.306Z,1.52
2018-11-04T01:04:41.310Z,1.50
2018-11-04T01:05:46.085Z,1.54
2018-11-04T01:06:53.430Z,1.61
2018-11-04T01:07:57.904Z,1.65
2018-11-04T01:09:03.430Z,1.60
2018-11-04T01:10:08.324Z,1.50
2018-11-04T01:11:13.543Z,1.48
2018-11-04T01:12:18.318Z,1.56
2018-11-04T01:13:22.937Z,1.64
2018-11-04T01:14:27.919Z,1.61
2018-11-04T01:15:33.044Z,1.62
2018-11-04T01:16:38.486Z,1.66
2018-11-04T01:17:43.601Z,1.72
2018-11-04T01:18:48.403Z,1.78
2018-11-04T01:19:52.918Z,1.87
2018-11-04T01:20:57.782Z,1.90
2018-11-04T01:22:02.453Z,1.90
2018-11-04T01:23:07.720Z,1.90
2018-11-04T01:24:14.449Z,1.89
2018-11-04T01:25:22.378Z,1.88
2018-11-04T01:26:27.253Z,1.82
2018-11-04T01:27:31.893Z,1.82
2018-11-04T01:28:36.622Z,1.85
2018-11-04T01:29:42.210Z,1.90
2018-11-04T01:30:46.744Z,1.96
2018-11-04T01:31:51.573Z,2.02
2018-11-04T01:32:56.162Z,1.94
2018-11-04T01:34:00.726Z,1.95
2018-11-04T01:35:06.358Z,1.99
2018-11-04T01:36:10.901Z,1.95
2018-11-04T01:37:16.459Z,1.92
2018-11-04T01:38:21.355Z,1.93
2018-11-04T01:39:28.289Z,1.86
2018-11-04T01:40:33.440Z,1.84
2018-11-04T01:41:38.179Z,1.84
2018-11-04T01:42:42.666Z,1.86
2018-11-04T01:43:47.382Z,1.90
2018-11-04T01:44:54.283Z,1.90
2018-11-04T01:45:59.008Z,1.89
2018-11-04T01:47:03.590Z,1.84
2018-11-04T01:48:09.253Z,1.80
2018-11-04T01:49:14.165Z,1.77
2018-11-04T01:50:18.686Z,1.80
2018-11-04T01:51:25.383Z,1.90
2018-11-04T01:52:29.884Z,1.96
2018-11-04T01:53:36.694Z,2.01
2018-11-04T01:54:43.095Z,2.04
2018-11-04T01:55:48.465Z,2.00
2018-11-04T01:56:52.996Z,2.02
2018-11-04T01:57:58.683Z,1.98
2018-11-04T01:59:04.431Z,1.92
2018-11-04T02:00:11.682Z,1.98
2018-11-04T02:01:16.221Z,1.91
2018-11-04T02:02:20.733Z,1.83
2018-11-04T02:03:25.227Z,1.79
2018-11-04T02:04:31.841Z,1.82
2018-11-04T02:05:36.350Z,1.89
2018-11-04T02:06:42.194Z,1.91
2018-11-04T02:07:47.907Z,1.97
2018-11-04T02:08:53.796Z,2.03
2018-11-04T02:09:58.298Z,2.04
2018-11-04T02:11:08.938Z,2.11
2018-11-04T02:12:13.457Z,2.16
2018-11-04T02:13:17.967Z,2.18
2018-11-04T02:14:22.985Z,2.13
2018-11-04T02:15:27.460Z,2.06
2018-11-04T02:16:31.910Z,1.95
2018-11-04T02:17:37.035Z,1.97
2018-11-04T02:18:41.530Z,1.97
2018-11-04T02:19:46.041Z,1.98
2018-11-04T02:20:50.548Z,1.96
2018-11-04T02:21:56.654Z,1.95
2018-11-04T02:23:01.262Z,1.95
2018-11-04T02:24:06.186Z,1.89
2018-11-04T02:25:11.880Z,1.88
2018-11-04T02:26:27.839Z,1.89
2018-11-04T02:27:33.955Z,2.00
2018-11-04T02:28:39.831Z,2.05
2018-11-04T02:29:44.404Z,2.10
2018-11-04T02:30:50.285Z,2.15
2018-11-04T02:31:54.842Z,2.17
2018-11-04T02:32:59.440Z,2.14
2018-11-04T02:34:03.913Z,2.13
2018-11-04T02:35:09.749Z,2.13
2018-11-04T02:36:16.425Z,2.12
2018-11-04T02:37:21.213Z,2.16
2018-11-04T02:38:25.693Z,2.12
2018-11-04T02:39:39.163Z,2.12
2018-11-04T02:40:46.598Z,2.15
2018-11-04T02:41:51.921Z,2.21
2018-11-04T02:42:57.127Z,2.25
2018-11-04T02:44:01.903Z,2.29
2018-11-04T02:45:06.763Z,2.32
2018-11-04T02:46:13.288Z,2.32
2018-11-04T02:47:17.749Z,2.36
2018-11-04T02:48:22.209Z,2.37
2018-11-04T02:49:26.743Z,2.36
2018-11-04T02:50:31.932Z,2.33
2018-11-04T02:51:37.481Z,2.38
2018-11-04T02:52:41.965Z,2.33
2018-11-04T02:53:46.412Z,2.34
2018-11-04T02:54:50.860Z,2.37
2018-11-04T02:55:55.373Z,2.42
2018-11-04T02:56:59.920Z,2.42
2018-11-04T02:58:04.439Z,2.45
2018-11-04T02:59:08.932Z,2.44
2018-11-04T03:00:16.516Z,2.45
2018-11-04T03:01:21.706Z,2.50
2018-11-04T03:02:27.205Z,2.50
2018-11-04T03:03:31.684Z,2.50
2018-11-04T03:04:36.164Z,2.53
2018-11-04T03:05:40.624Z,2.57
2018-11-04T03:06:45.109Z,2.60
2018-11-04T03:07:50.008Z,2.61
2018-11-04T03:08:54.823Z,2.64
2018-11-04T03:09:59.304Z,2.64
2018-11-04T03:11:03.745Z,2.67
2018-11-04T03:12:08.325Z,2.69
2018-11-04T03:13:12.797Z,2.66
2018-11-04T03:14:17.344Z,2.70
2018-11-04T03:15:22.117Z,2.72
2018-11-04T03:16:28.978Z,2.75
2018-11-04T03:17:33.473Z,2.79
2018-11-04T03:18:38.033Z,2.82
2018-11-04T03:19:42.522Z,2.84
2018-11-04T03:20:47.560Z,2.86
2018-11-04T03:21:52.389Z,2.87
2018-11-04T03:22:56.934Z,2.89
2018-11-04T03:24:01.505Z,2.91
2018-11-04T03:25:06.683Z,2.92
2018-11-04T03:26:11.619Z,2.92
2018-11-04T03:27:16.343Z,2.88
2018-11-04T03:28:21.450Z,2.90
2018-11-04T03:29:26.253Z,2.93
2018-11-04T03:30:30.753Z,2.95
2018-11-04T03:31:35.246Z,2.97
2018-11-04T03:32:39.961Z,2.95
2018-11-04T03:33:45.593Z,2.88
2018-11-04T03:34:50.717Z,2.88
2018-11-04T03:35:55.177Z,2.83
2018-11-04T03:36:59.634Z,2.83
2018-11-04T03:38:06.024Z,2.77
2018-11-04T03:39:12.467Z,2.79
2018-11-04T03:40:17.002Z,2.83
2018-11-04T03:41:21.939Z,2.88
2018-11-04T03:42:26.424Z,2.93
2018-11-04T03:43:31.025Z,2.96
2018-11-04T03:44:35.493Z,2.96
2018-11-04T03:45:41.405Z,2.97
2018-11-04T03:46:46.269Z,2.95
2018-11-04T03:47:51.679Z,2.90
2018-11-04T03:48:57.026Z,2.94
2018-11-04T03:50:01.720Z,2.98
2018-11-04T03:51:15.527Z,2.97
2018-11-04T03:52:20.097Z,2.93
2018-11-04T03:53:24.736Z,2.92
2018-11-04T03:54:29.554Z,2.91
2018-11-04T03:55:34.590Z,2.88
2018-11-04T03:56:39.110Z,2.82
2018-11-04T03:57:43.616Z,2.86
2018-11-04T03:58:48.357Z,2.91
2018-11-04T03:59:53.295Z,2.97
2018-11-04T04:00:58.282Z,3.02
2018-11-04T04:02:03.615Z,3.01
2018-11-04T04:03:08.868Z,3.01
2018-11-04T04:04:13.544Z,3.03
2018-11-04T04:05:19.198Z,3.04
2018-11-04T04:06:25.421Z,3.04
2018-11-04T04:07:30.227Z,3.10
2018-11-04T04:08:35.352Z,3.08
2018-11-04T04:09:40.208Z,3.08
2018-11-04T04:10:45.398Z,3.12
2018-11-04T04:11:50.532Z,3.13
2018-11-04T04:12:55.920Z,3.19
2018-11-04T04:14:01.243Z,3.14
2018-11-04T04:15:07.038Z,3.05
2018-11-04T04:16:11.876Z,3.03
2018-11-04T04:17:16.717Z,2.99
2018-11-04T04:18:22.210Z,2.97
2018-11-04T04:19:27.296Z,2.98
2018-11-04T04:20:33.088Z,3.01
2018-11-04T04:21:37.823Z,3.05
2018-11-04T04:22:42.654Z,3.00
2018-11-04T04:23:48.367Z,2.94
2018-11-04T04:24:53.862Z,2.97
2018-11-04T04:25:58.998Z,3.00
2018-11-04T04:27:03.664Z,3.02
2018-11-04T04:28:08.738Z,3.05
2018-11-04T04:29:13.225Z,3.05
2018-11-04T04:30:17.709Z,3.05
2018-11-04T04:31:22.296Z,3.07
2018-11-04T04:32:26.840Z,3.11
2018-11-04T04:33:31.314Z,3.12
2018-11-04T04:34:35.790Z,3.14
2018-11-04T04:35:40.218Z,3.14
2018-11-04T04:36:44.666Z,3.11
2018-11-04T04:37:49.433Z,3.09
2018-11-04T04:38:54.512Z,3.11
2018-11-04T04:39:58.976Z,3.09
2018-11-04T04:41:03.463Z,3.05
2018-11-04T04:42:07.951Z,3.02
2018-11-04T04:43:15.674Z,3.04
2018-11-04T04:44:20.704Z,3.11
2018-11-04T04:45:25.266Z,3.18
2018-11-04T04:46:30.502Z,3.23
2018-11-04T04:47:35.184Z,3.27
2018-11-04T04:48:40.439Z,3.30
2018-11-04T04:49:47.652Z,3.30
2018-11-04T04:50:52.426Z,3.31
2018-11-04T04:51:57.863Z,3.33
2018-11-04T04:53:02.350Z,3.33
2018-11-04T04:54:09.038Z,3.34
2018-11-04T04:55:13.505Z,3.36
2018-11-04T04:56:17.979Z,3.34
2018-11-04T04:57:24.001Z,3.24
2018-11-04T04:58:28.997Z,3.28
2018-11-04T04:59:36.229Z,3.33
2018-11-04T05:00:40.660Z,3.34
2018-11-04T05:01:46.252Z,3.37
2018-11-04T05:02:51.713Z,3.29
2018-11-04T05:03:57.252Z,3.31
2018-11-04T05:05:02.369Z,3.35
2018-11-04T05:06:06.827Z,3.35
2018-11-04T05:07:13.770Z,3.39
2018-11-04T05:08:19.321Z,3.33
2018-11-04T05:09:25.041Z,3.38
2018-11-04T05:10:29.773Z,3.42
2018-11-04T05:11:38.836Z,3.45
2018-11-04T05:12:43.367Z,3.48
2018-11-04T05:13:47.872Z,3.49
2018-11-04T05:14:52.342Z,3.52
2018-11-04T05:15:57.500Z,3.50
2018-11-04T05:17:07.153Z,3.51
2018-11-04T05:18:11.797Z,3.55
2018-11-04T05:19:16.395Z,3.57
2018-11-04T05:20:20.942Z,3.57
2018-11-04T05:21:26.447Z,3.54
2018-11-04T05:22:32.646Z,3.54
2018-11-04T05:23:38.098Z,3.52
2018-11-04T05:24:42.779Z,3.56
2018-11-04T05:25:48.371Z,3.59
2018-11-04T05:26:53.316Z,3.64
2018-11-04T05:27:57.794Z,3.66
2018-11-04T05:29:02.306Z,3.71
2018-11-04T05:30:08.466Z,3.73
2018-11-04T05:32:23.260Z,3.67
2018-11-04T05:33:27.722Z,3.71
2018-11-04T05:34:32.210Z,3.70
2018-11-04T05:35:36.665Z,3.69
2018-11-04T05:36:42.304Z,3.65
2018-11-04T05:37:46.772Z,3.63
2018-11-04T05:38:51.243Z,3.60
2018-11-04T05:39:55.696Z,3.58
2018-11-04T05:41:00.198Z,3.59
2018-11-04T05:42:04.792Z,3.60
2018-11-04T05:43:09.741Z,3.63
2018-11-04T05:44:14.532Z,3.63
2018-11-04T05:45:19.033Z,3.64
2018-11-04T05:46:23.517Z,3.67
2018-11-04T05:47:28.075Z,3.71
2018-11-04T05:48:32.562Z,3.75
2018-11-04T05:49:37.677Z,3.78
2018-11-04T05:50:42.138Z,3.81
2018-11-04T05:51:46.681Z,3.85
2018-11-04T05:52:51.126Z,3.88
2018-11-04T05:53:56.329Z,3.90
2018-11-04T05:55:00.802Z,3.92
2018-11-04T05:56:07.936Z,3.90
2018-11-04T05:57:12.395Z,3.84
2018-11-04T05:58:18.062Z,3.82
2018-11-04T05:59:23.330Z,3.84
2018-11-04T06:00:27.764Z,3.86
2018-11-04T06:01:32.207Z,3.89
2018-11-04T06:02:37.108Z,3.84
2018-11-04T06:03:41.792Z,3.75
2018-11-04T06:04:47.313Z,3.76
2018-11-04T06:05:52.261Z,3.75
2018-11-04T06:06:56.777Z,3.71
2018-11-04T06:08:02.731Z,3.74
2018-11-04T06:09:08.545Z,3.77
2018-11-04T06:10:16.596Z,3.76
2018-11-04T06:11:21.098Z,3.76
2018-11-04T06:12:25.848Z,3.82
2018-11-04T06:13:33.505Z,3.75
2018-11-04T06:14:37.970Z,3.68
2018-11-04T06:15:42.914Z,3.72
2018-11-04T06:16:47.525Z,3.69
2018-11-04T06:17:54.683Z,3.71
2018-11-04T06:18:59.687Z,3.77
2018-11-04T06:20:04.803Z,3.81
2018-11-04T06:21:09.314Z,3.73
2018-11-04T06:22:14.279Z,3.71
2018-11-04T06:23:18.716Z,3.77
2018-11-04T06:24:23.545Z,3.82
2018-11-04T06:25:28.057Z,3.87
2018-11-04T06:26:32.564Z,3.91
2018-11-04T06:27:37.025Z,3.99
2018-11-04T06:28:41.943Z,4.01
2018-11-04T06:29:46.401Z,4.03
2018-11-04T06:44:40.465Z,4.11
2018-11-04T06:45:45.102Z,4.14
2018-11-04T06:46:51.026Z,4.18
2018-11-04T06:47:55.553Z,4.20
2018-11-04T06:49:00.173Z,4.24
2018-11-04T06:50:05.397Z,4.24
2018-11-04T06:51:09.913Z,4.24
2018-11-04T06:52:14.383Z,4.25
2018-11-04T06:53:18.944Z,4.26
2018-11-04T06:54:24.857Z,4.28
2018-11-04T06:55:29.321Z,4.32
2018-11-04T06:56:34.295Z,4.33
2018-11-04T06:57:39.695Z,4.36
2018-11-04T06:58:44.163Z,4.38
2018-11-04T06:59:48.681Z,4.40
2018-11-04T07:00:53.185Z,4.40
2018-11-04T07:01:57.691Z,4.42
2018-11-04T07:03:02.577Z,4.44
2018-11-04T07:04:27.669Z,4.48
2018-11-04T07:05:32.186Z,4.58
2018-11-04T07:06:36.673Z,4.63
2018-11-04T07:07:41.116Z,4.66
2018-11-04T07:08:45.595Z,4.75
2018-11-04T07:09:50.663Z,4.72
2018-11-04T07:10:55.204Z,4.74
2018-11-04T07:12:00.299Z,4.77
2018-11-04T07:13:04.914Z,4.84
2018-11-04T07:14:09.883Z,4.87
2018-11-04T07:15:14.367Z,4.89
2018-11-04T07:16:19.225Z,4.91
2018-11-04T07:17:24.193Z,4.84
2018-11-04T07:18:28.660Z,4.81
2018-11-04T07:19:33.137Z,4.81
2018-11-04T07:20:37.687Z,4.82
2018-11-04T07:21:42.155Z,4.89
2018-11-04T07:22:47.135Z,4.98
2018-11-04T07:23:51.671Z,5.04
2018-11-04T07:24:58.366Z,5.07
2018-11-04T07:26:03.541Z,5.07
2018-11-04T07:27:09.622Z,5.05
2018-11-04T07:28:15.114Z,5.05
2018-11-04T07:29:19.948Z,5.04
2018-11-04T07:30:24.523Z,5.04
2018-11-04T07:31:29.049Z,5.01
2018-11-04T07:32:33.557Z,5.02
2018-11-04T07:35:16.351Z,4.95
2018-11-04T07:36:21.832Z,4.96
2018-11-04T07:37:27.236Z,4.97
2018-11-04T07:38:31.748Z,4.99
2018-11-04T07:39:36.224Z,4.99
2018-11-04T07:40:41.092Z,5.00
2018-11-04T07:41:47.997Z,5.02
2018-11-04T07:42:52.845Z,5.01
2018-11-04T07:43:57.337Z,5.03
2018-11-04T07:45:01.837Z,5.03
2018-11-04T07:46:07.350Z,4.96
2018-11-04T07:47:12.097Z,4.99
2018-11-04T07:48:20.325Z,5.04
2018-11-04T07:49:25.197Z,5.07
2018-11-04T07:50:29.698Z,5.13
2018-11-04T07:51:34.275Z,5.19
2018-11-04T07:52:40.365Z,5.26
2018-11-04T07:53:45.299Z,5.28
2018-11-04T07:54:49.807Z,5.31
2018-11-04T07:55:55.979Z,5.32
2018-11-04T07:57:01.061Z,5.35
2018-11-04T07:58:06.946Z,5.37
2018-11-04T07:59:11.402Z,5.42
2018-11-04T08:00:17.043Z,5.44
2018-11-04T08:01:21.538Z,5.44
2018-11-04T08:03:49.371Z,5.45
2018-11-04T08:04:54.859Z,5.47
2018-11-04T08:06:00.505Z,5.48
2018-11-04T08:07:05.000Z,5.50
2018-11-04T08:08:09.507Z,5.49
2018-11-04T08:09:14.225Z,5.49
2018-11-04T08:10:19.686Z,5.44
2018-11-04T08:11:25.034Z,5.43
2018-11-04T08:12:29.582Z,5.45
2018-11-04T08:13:34.574Z,5.46
2018-11-04T08:14:38.995Z,5.49
2018-11-04T08:15:43.790Z,5.57
2018-11-04T08:16:49.825Z,5.63
2018-11-04T08:17:57.189Z,5.67
2018-11-04T08:19:02.212Z,5.72
2018-11-04T08:20:06.853Z,5.79
2018-11-04T08:21:12.375Z,5.83
2018-11-04T08:22:17.862Z,5.89
2018-11-04T08:23:23.376Z,5.93
2018-11-04T08:24:30.453Z,5.96
2018-11-04T08:25:36.900Z,5.99
2018-11-04T08:27:00.219Z,6.03
2018-11-04T08:28:07.081Z,6.09
2018-11-04T08:29:13.482Z,6.13
2018-11-04T08:30:23.709Z,6.14
2018-11-04T08:31:31.549Z,6.18
2018-11-04T08:32:36.785Z,6.20
2018-11-04T08:33:41.283Z,6.24
2018-11-04T08:34:46.746Z,6.25
2018-11-04T08:35:53.668Z,6.31
2018-11-04T08:36:59.823Z,6.35
2018-11-04T08:38:06.232Z,6.39
2018-11-04T08:39:11.773Z,6.42
2018-11-04T08:40:17.467Z,6.42
2018-11-04T08:41:23.245Z,6.43
2018-11-04T08:42:31.669Z,6.46
2018-11-04T08:43:36.737Z,6.50
2018-11-04T08:44:45.184Z,6.54
2018-11-04T08:45:50.334Z,6.51
2018-11-04T08:46:56.434Z,6.52
2018-11-04T08:48:03.399Z,6.59
2018-11-04T08:49:09.744Z,6.66
2018-11-04T08:50:16.425Z,6.71
2018-11-04T08:51:20.941Z,6.74
2018-11-04T08:52:25.922Z,6.78
2018-11-04T08:53:30.524Z,6.80
2018-11-04T08:54:37.416Z,6.83
2018-11-04T08:55:44.145Z,6.86
2018-11-04T08:56:52.518Z,6.83
2018-11-04T08:57:58.529Z,6.88
2018-11-04T08:59:03.663Z,6.85
2018-11-04T09:00:10.338Z,6.87
2018-11-04T09:01:15.665Z,6.91
2018-11-04T09:02:24.224Z,6.95
2018-11-04T09:03:29.793Z,6.99
2018-11-04T09:04:35.384Z,7.03
2018-11-04T09:05:40.652Z,7.07
2018-11-04T09:06:55.493Z,7.11
2018-11-04T09:08:11.713Z,7.14
2018-11-04T09:09:19.889Z,7.18
2018-11-04T09:10:29.423Z,7.22
2018-11-04T09:11:39.915Z,7.22
2018-11-04T09:12:49.371Z,7.22
2018-11-04T09:13:56.569Z,7.23
2018-11-04T09:15:03.853Z,7.23
2018-11-04T09:17:37.826Z,7.20
2018-11-04T09:18:44.455Z,7.21
2018-11-04T09:19:50.104Z,7.24
2018-11-04T09:20:58.714Z,7.30
2018-11-04T09:22:08.633Z,7.37
2018-11-04T09:23:15.781Z,7.36
2018-11-04T09:24:22.032Z,7.41
2018-11-04T09:25:28.062Z,7.41
2018-11-04T09:26:32.579Z,7.39
2018-11-04T09:27:37.942Z,7.42
2018-11-04T09:28:43.414Z,7.44
2018-11-04T09:29:49.745Z,7.48
2018-11-04T09:30:54.287Z,7.53
2018-11-04T09:31:58.937Z,7.59
2018-11-04T09:33:04.664Z,7.63
2018-11-04T09:34:20.407Z,7.69
2018-11-04T09:35:25.676Z,7.76
2018-11-04T09:36:33.048Z,7.82
2018-11-04T09:37:38.757Z,7.86
2018-11-04T09:38:45.524Z,7.83
2018-11-04T09:41:10.925Z,7.89
2018-11-04T09:42:15.801Z,7.94
2018-11-04T09:43:20.752Z,7.97
2018-11-04T09:44:25.317Z,8.05
2018-11-04T09:45:30.952Z,8.07
2018-11-04T09:46:37.272Z,8.05
2018-11-04T09:47:43.349Z,8.06
2018-11-04T09:48:49.849Z,8.11
2018-11-04T09:49:55.157Z,8.16
2018-11-04T09:50:59.627Z,8.18
2018-11-04T09:52:04.173Z,8.19
2018-11-04T09:53:09.012Z,8.19
2018-11-04T09:54:13.594Z,8.24
2018-11-04T09:55:18.598Z,8.26
2018-11-04T09:56:23.133Z,8.32
2018-11-04T09:57:28.386Z,8.34
2018-11-04T09:58:32.925Z,8.35
2018-11-04T09:59:38.909Z,8.36
2018-11-04T10:00:43.617Z,8.39
2018-11-04T10:01:54.196Z,8.43
2018-11-04T10:02:59.558Z,8.50
2018-11-04T10:04:04.126Z,8.46
2018-11-04T10:05:09.557Z,8.43
2018-11-04T10:06:19.786Z,8.44
2018-11-04T10:07:24.666Z,8.45
2018-11-04T10:08:29.662Z,8.47
2018-11-04T10:09:36.055Z,8.47
2018-11-04T10:10:43.927Z,8.47
2018-11-04T10:11:48.526Z,8.46
2018-11-04T10:12:54.763Z,8.48
2018-11-04T10:13:59.760Z,8.51
2018-11-04T10:15:09.907Z,8.51
2018-11-04T10:16:16.835Z,8.50
2018-11-04T10:17:22.168Z,8.48
2018-11-04T10:18:26.911Z,8.49
2018-11-04T10:19:32.453Z,8.52
2018-11-04T10:20:39.401Z,8.53
2018-11-04T10:21:46.020Z,8.49
2018-11-04T10:22:50.595Z,8.51
2018-11-04T10:23:55.396Z,8.53
2018-11-04T10:25:00.451Z,8.56
2018-11-04T10:26:05.090Z,8.56
2018-11-04T10:27:11.114Z,8.56
2018-11-04T10:28:16.250Z,8.54
2018-11-04T10:29:26.272Z,8.54
2018-11-04T10:30:32.078Z,8.53
2018-11-04T10:31:37.797Z,8.54
2018-11-04T10:32:49.178Z,8.55
2018-11-04T10:33:55.806Z,8.52
2018-11-04T10:35:04.849Z,8.55
2018-11-04T10:36:10.820Z,8.54
2018-11-04T10:37:15.889Z,8.57
2018-11-04T10:38:20.569Z,8.61
2018-11-04T10:39:25.069Z,8.60
2018-11-04T10:40:30.056Z,8.58
2018-11-04T10:41:35.715Z,8.53
2018-11-04T10:42:41.307Z,8.54
2018-11-04T10:43:46.306Z,8.54
2018-11-04T10:44:54.381Z,8.53
2018-11-04T10:46:00.996Z,8.48
2018-11-04T10:47:06.530Z,8.52
2018-11-04T10:48:11.214Z,8.59
2018-11-04T10:49:18.449Z,8.59
2018-11-04T10:50:23.150Z,8.55
2018-11-04T10:51:27.687Z,8.53
2018-11-04T10:52:33.208Z,8.55
2018-11-04T10:53:39.368Z,8.57
2018-11-04T10:54:51.793Z,8.60
2018-11-04T10:55:57.928Z,8.61
2018-11-04T10:58:16.403Z,8.68
2018-11-04T10:59:32.254Z,8.69
2018-11-04T11:00:43.572Z,8.67
2018-11-04T11:01:55.461Z,8.69
2018-11-04T11:03:00.602Z,8.66
2018-11-04T11:04:07.250Z,8.66
2018-11-04T11:05:12.666Z,8.65
2018-11-04T11:06:18.308Z,8.66
2018-11-04T11:07:22.879Z,8.68
2018-11-04T11:08:27.493Z,8.72
2018-11-04T11:09:32.180Z,8.72
2018-11-04T11:10:40.046Z,8.71
2018-11-04T11:11:46.318Z,8.71
2018-11-04T11:12:54.648Z,8.72
2018-11-04T11:14:00.231Z,8.73
2018-11-04T11:15:06.074Z,8.74
2018-11-04T11:16:11.629Z,8.73
2018-11-04T11:17:19.604Z,8.74
2018-11-04T11:18:25.316Z,8.75
2018-11-04T11:19:31.486Z,8.75
2018-11-04T11:20:40.086Z,8.69
2018-11-04T11:21:45.788Z,8.67
2018-11-04T11:22:54.431Z,8.68
2018-11-04T11:24:17.780Z,8.67
2018-11-04T11:25:24.284Z,8.66
2018-11-04T11:26:30.103Z,8.66
2018-11-04T11:27:36.119Z,8.66
2018-11-04T11:28:43.401Z,8.69
2018-11-04T11:29:57.049Z,8.73
2018-11-04T11:43:54.006Z,8.88
2018-11-04T11:45:00.691Z,8.91
2018-11-04T11:46:07.084Z,8.90
2018-11-04T11:47:13.299Z,8.92
2018-11-04T11:48:22.083Z,8.95
2018-11-04T11:49:42.899Z,8.95
2018-11-04T11:50:48.552Z,8.94
2018-11-04T11:51:54.337Z,8.93
2018-11-04T11:53:00.785Z,8.93
2018-11-04T11:54:11.983Z,8.92
2018-11-04T11:55:22.710Z,8.96
2018-11-04T11:56:28.291Z,8.95
2018-11-04T11:57:36.200Z,8.95
2018-11-04T12:04:12.599Z,8.93
2018-11-04T12:05:19.629Z,8.97
2018-11-04T12:06:32.030Z,8.91
2018-11-04T12:07:38.761Z,8.94
2018-11-04T12:08:47.348Z,8.96
2018-11-04T12:09:54.067Z,8.96
2018-11-04T12:14:26.379Z,8.96
2018-11-04T12:15:36.811Z,8.92
2018-11-04T12:16:41.812Z,8.86
2018-11-04T12:17:47.118Z,8.90
2018-11-04T12:18:53.853Z,8.94
2018-11-04T12:19:58.600Z,8.92
2018-11-04T12:21:03.093Z,8.96
2018-11-04T12:22:07.584Z,8.95
2018-11-04T12:23:16.488Z,8.97
2018-11-04T12:24:22.051Z,8.99
2018-11-04T12:25:26.545Z,9.01
2018-11-04T12:26:30.992Z,9.01
2018-11-04T12:27:36.940Z,9.03
2018-11-04T12:28:42.233Z,9.05
2018-11-04T12:29:48.328Z,9.02
2018-11-04T12:31:01.271Z,9.01
2018-11-04T12:32:05.736Z,9.02
2018-11-04T12:33:10.429Z,9.07
2018-11-04T12:34:18.494Z,9.10
2018-11-04T12:35:23.502Z,9.08
2018-11-04T12:36:32.730Z,9.05
2018-11-04T12:37:43.414Z,9.05
2018-11-04T12:38:48.652Z,9.02
2018-11-04T12:39:53.219Z,9.06
2018-11-04T12:40:58.301Z,9.05
2018-11-04T12:42:03.488Z,9.08
2018-11-04T12:43:13.105Z,9.11
2018-11-04T12:44:19.053Z,9.12
2018-11-04T12:45:24.957Z,9.11
2018-11-04T12:46:29.450Z,9.11
2018-11-04T12:47:34.162Z,9.10
2018-11-04T12:48:38.684Z,9.10
2018-11-04T12:49:43.759Z,9.12
2018-11-04T12:52:04.744Z,9.11
2018-11-04T12:53:09.713Z,9.12
2018-11-04T12:54:16.064Z,9.14
2018-11-04T12:55:22.532Z,9.16
2018-11-04T12:56:28.071Z,9.13
2018-11-04T12:57:34.612Z,9.13
2018-11-04T12:58:39.104Z,9.15
2018-11-04T12:59:47.476Z,9.17
2018-11-04T13:01:00.390Z,9.19
2018-11-04T13:02:19.826Z,9.22
2018-11-04T13:03:25.171Z,9.18
2018-11-04T13:04:30.570Z,9.19
2018-11-04T13:05:35.088Z,9.19
2018-11-04T13:06:40.692Z,9.16
2018-11-04T13:07:48.124Z,9.19
2018-11-04T13:08:53.511Z,9.16
2018-11-04T13:09:59.732Z,9.16
2018-11-04T13:11:04.649Z,9.17
2018-11-04T13:12:13.894Z,9.19
2018-11-04T13:13:18.820Z,9.18
2018-11-04T13:14:26.019Z,9.19
2018-11-04T13:15:32.931Z,9.22
2018-11-04T13:16:39.069Z,9.26
2018-11-04T13:17:44.819Z,9.29
2018-11-04T13:18:50.577Z,9.27
2018-11-04T13:20:00.527Z,9.29
2018-11-04T13:21:05.924Z,9.32
2018-11-04T13:23:33.367Z,9.38
2018-11-04T13:24:37.945Z,9.32
2018-11-04T13:25:43.034Z,9.32
2018-11-04T13:26:53.994Z,9.35
2018-11-04T13:27:58.580Z,9.37
2018-11-04T13:29:05.863Z,9.35
2018-11-04T13:30:15.343Z,9.35
2018-11-04T13:31:20.844Z,9.37
2018-11-04T13:32:26.504Z,9.43
2018-11-04T13:33:32.617Z,9.43
2018-11-04T13:34:38.106Z,9.45
2018-11-04T13:35:42.811Z,9.43
2018-11-04T13:36:49.354Z,9.44
2018-11-04T13:37:55.769Z,9.44
2018-11-04T13:40:15.321Z,9.47
2018-11-04T13:41:20.529Z,9.47
2018-11-04T13:42:25.487Z,9.49
2018-11-04T13:44:42.706Z,9.52
2018-11-04T13:45:50.846Z,9.51
2018-11-04T13:46:58.499Z,9.46
2018-11-04T13:48:03.398Z,9.47
2018-11-04T13:49:09.820Z,9.46
2018-11-04T13:50:15.105Z,9.42
2018-11-04T13:51:21.558Z,9.42
2018-11-04T13:52:27.302Z,9.43
2018-11-04T13:53:34.265Z,9.43
2018-11-04T13:54:39.796Z,9.44
2018-11-04T13:55:44.331Z,9.46
2018-11-04T13:56:50.134Z,9.46
2018-11-04T13:57:54.945Z,9.46
2018-11-04T13:59:00.786Z,9.45
2018-11-04T14:00:05.670Z,9.48
2018-11-04T14:01:12.290Z,9.47
2018-11-04T14:02:18.506Z,9.50
2018-11-04T14:03:23.733Z,9.49
2018-11-04T14:04:31.431Z,9.50
2018-11-04T14:05:38.672Z,9.51
2018-11-04T14:06:44.184Z,9.51
2018-11-04T14:07:49.200Z,9.49
2018-11-04T14:08:53.677Z,9.49
2018-11-04T14:10:00.445Z,9.49
2018-11-04T14:11:10.317Z,9.54
2018-11-04T14:12:19.840Z,9.57
2018-11-04T14:13:25.516Z,9.58
2018-11-04T14:14:31.442Z,9.57
2018-11-04T14:15:36.949Z,9.56
2018-11-04T14:16:42.405Z,9.51
2018-11-04T14:17:47.152Z,9.50
2018-11-04T14:18:53.344Z,9.54
2018-11-04T14:19:59.879Z,9.54
2018-11-04T14:21:04.443Z,9.49
2018-11-04T14:22:09.573Z,9.51
2018-11-04T14:23:14.178Z,9.51
2018-11-04T14:24:19.284Z,9.54
2018-11-04T14:25:25.362Z,9.51
2018-11-04T14:26:30.901Z,9.48
2018-11-04T14:27:36.315Z,9.47
2018-11-04T14:28:41.196Z,9.45
2018-11-04T14:29:46.096Z,9.48
2018-11-04T14:30:50.973Z,9.51
2018-11-04T14:31:57.472Z,9.50
2018-11-04T14:33:02.738Z,9.49
2018-11-04T14:34:09.145Z,9.46
2018-11-04T14:35:15.242Z,9.44
2018-11-04T14:36:21.481Z,9.45
2018-11-04T14:37:26.867Z,9.42
2018-11-04T14:38:32.452Z,9.41
2018-11-04T14:39:38.996Z,9.41
2018-11-04T14:40:44.867Z,9.39
2018-11-04T14:41:49.951Z,9.39
2018-11-04T14:42:56.241Z,9.39
2018-11-04T14:44:04.038Z,9.41
2018-11-04T14:45:11.537Z,9.42
2018-11-04T14:46:17.420Z,9.39
2018-11-04T14:47:22.513Z,9.40
2018-11-04T14:48:27.356Z,9.38
2018-11-04T14:49:32.656Z,9.38
2018-11-04T14:50:40.724Z,9.39
2018-11-04T14:51:47.345Z,9.37
2018-11-04T14:52:51.918Z,9.37
2018-11-04T14:53:56.839Z,9.38
2018-11-04T14:55:02.077Z,9.39
2018-11-04T14:56:07.529Z,9.38
2018-11-04T14:57:15.094Z,9.40
2018-11-04T14:58:20.638Z,9.39
2018-11-04T14:59:26.336Z,9.36
2018-11-04T15:00:37.134Z,9.35
2018-11-04T15:01:42.386Z,9.35
2018-11-04T15:02:46.834Z,9.35
2018-11-04T15:03:53.494Z,9.34
2018-11-04T15:04:57.990Z,9.33
2018-11-04T15:06:03.293Z,9.33
2018-11-04T15:07:08.085Z,9.33
2018-11-04T15:08:13.250Z,9.29
2018-11-04T15:09:20.274Z,9.29
2018-11-04T15:10:26.752Z,9.28
2018-11-04T15:11:31.833Z,9.29
2018-11-04T15:12:36.523Z,9.27
2018-11-04T15:13:42.336Z,9.30
2018-11-04T15:14:47.244Z,9.28
2018-11-04T15:15:55.124Z,9.29
2018-11-04T15:17:00.801Z,9.25
2018-11-04T15:18:07.508Z,9.27
2018-11-04T15:19:13.621Z,9.27
2018-11-04T15:20:18.393Z,9.26
2018-11-04T15:21:23.029Z,9.20
2018-11-04T15:22:27.513Z,9.23
2018-11-04T15:23:32.738Z,9.21
2018-11-04T15:24:39.321Z,9.22